sensor_id;sensor_type;location;lat;lon;timestamp;temperature;humidity
40600;DHT22;26309;50.924;4.754;2023-08-08T00:01:45;14.70;99.90
40600;DHT22;26309;50.924;4.754;2023-08-08T00:04:11;14.90;99.90
40600;DHT22;26309;50.924;4.754;2023-08-08T00:06:38;14.90;99.90
40600;DHT22;26309;50.924;4.754;2023-08-08T00:09:04;14.80;99.90
40600;DHT22;26309;50.924;4.754;2023-08-08T00:11:30;14.70;99.90
40600;DHT22;26309;50.924;4.754;2023-08-08T00:13:57;14.70;99.90
40600;DHT22;26309;50.924;4.754;2023-08-08T00:16:23;14.70;99.90
40600;DHT22;26309;50.924;4.754;2023-08-08T00:18:49;14.70;99.90
40600;DHT22;26309;50.924;4.754;2023-08-08T00:21:21;14.60;99.90
40600;DHT22;26309;50.924;4.754;2023-08-08T00:23:47;14.50;99.90
40600;DHT22;26309;50.924;4.754;2023-08-08T00:26:13;14.60;99.90
40600;DHT22;26309;50.924;4.754;2023-08-08T00:28:39;14.50;99.90
40600;DHT22;26309;50.924;4.754;2023-08-08T00:31:05;14.50;99.90
40600;DHT22;26309;50.924;4.754;2023-08-08T00:33:31;14.40;99.90
40600;DHT22;26309;50.924;4.754;2023-08-08T00:36:02;14.40;99.90
40600;DHT22;26309;50.924;4.754;2023-08-08T00:38:27;14.50;99.90
40600;DHT22;26309;50.924;4.754;2023-08-08T00:40:53;14.60;99.90
40600;DHT22;26309;50.924;4.754;2023-08-08T00:43:19;14.50;99.90
40600;DHT22;26309;50.924;4.754;2023-08-08T00:45:45;14.50;99.90
40600;DHT22;26309;50.924;4.754;2023-08-08T00:48:11;14.60;99.90
40600;DHT22;26309;50.924;4.754;2023-08-08T00:50:42;14.60;99.90
40600;DHT22;26309;50.924;4.754;2023-08-08T00:53:09;14.60;99.90
40600;DHT22;26309;50.924;4.754;2023-08-08T00:55:35;14.60;99.90
40600;DHT22;26309;50.924;4.754;2023-08-08T00:58:01;14.50;99.90
40600;DHT22;26309;50.924;4.754;2023-08-08T01:00:27;14.50;99.90
40600;DHT22;26309;50.924;4.754;2023-08-08T01:02:52;14.40;99.90
40600;DHT22;26309;50.924;4.754;2023-08-08T01:05:18;14.50;99.90
40600;DHT22;26309;50.924;4.754;2023-08-08T01:08:04;14.60;99.90
40600;DHT22;26309;50.924;4.754;2023-08-08T01:10:36;14.50;99.90
40600;DHT22;26309;50.924;4.754;2023-08-08T01:13:07;14.50;99.90
40600;DHT22;26309;50.924;4.754;2023-08-08T01:15:34;14.30;99.90
40600;DHT22;26309;50.924;4.754;2023-08-08T01:18:04;14.50;99.90
40600;DHT22;26309;50.924;4.754;2023-08-08T01:20:32;14.40;99.90
40600;DHT22;26309;50.924;4.754;2023-08-08T01:25:30;14.40;99.90
40600;DHT22;26309;50.924;4.754;2023-08-08T01:27:56;14.20;99.90
40600;DHT22;26309;50.924;4.754;2023-08-08T01:30:22;14.30;99.90
40600;DHT22;26309;50.924;4.754;2023-08-08T01:32:48;14.30;99.90
40600;DHT22;26309;50.924;4.754;2023-08-08T01:35:14;14.40;99.90
40600;DHT22;26309;50.924;4.754;2023-08-08T01:37:46;14.50;99.90
40600;DHT22;26309;50.924;4.754;2023-08-08T01:40:17;14.30;99.90
40600;DHT22;26309;50.924;4.754;2023-08-08T01:42:48;14.40;99.90
40600;DHT22;26309;50.924;4.754;2023-08-08T01:45:15;14.50;99.90
40600;DHT22;26309;50.924;4.754;2023-08-08T01:47:42;14.50;99.90
40600;DHT22;26309;50.924;4.754;2023-08-08T01:50:09;14.50;99.90
40600;DHT22;26309;50.924;4.754;2023-08-08T01:52:35;14.50;99.90
40600;DHT22;26309;50.924;4.754;2023-08-08T01:55:01;14.40;99.90
40600;DHT22;26309;50.924;4.754;2023-08-08T01:57:27;14.40;99.90
40600;DHT22;26309;50.924;4.754;2023-08-08T01:59:53;14.40;99.90
40600;DHT22;26309;50.924;4.754;2023-08-08T02:02:19;14.50;99.90
40600;DHT22;26309;50.924;4.754;2023-08-08T02:04:44;14.60;99.90
40600;DHT22;26309;50.924;4.754;2023-08-08T02:07:10;14.40;99.90
40600;DHT22;26309;50.924;4.754;2023-08-08T02:09:36;14.30;99.90
40600;DHT22;26309;50.924;4.754;2023-08-08T02:12:02;14.30;99.90
40600;DHT22;26309;50.924;4.754;2023-08-08T02:14:28;14.50;99.90
40600;DHT22;26309;50.924;4.754;2023-08-08T02:16:54;14.50;99.90
40600;DHT22;26309;50.924;4.754;2023-08-08T02:19:19;14.40;99.90
40600;DHT22;26309;50.924;4.754;2023-08-08T02:21:45;14.40;99.90
40600;DHT22;26309;50.924;4.754;2023-08-08T02:24:11;14.40;99.90
40600;DHT22;26309;50.924;4.754;2023-08-08T02:26:38;14.40;99.90
40600;DHT22;26309;50.924;4.754;2023-08-08T02:29:04;14.20;99.90
40600;DHT22;26309;50.924;4.754;2023-08-08T02:31:30;14.20;99.90
40600;DHT22;26309;50.924;4.754;2023-08-08T02:33:56;14.40;99.90
40600;DHT22;26309;50.924;4.754;2023-08-08T02:36:22;14.60;99.90
40600;DHT22;26309;50.924;4.754;2023-08-08T02:38:48;14.50;99.90
40600;DHT22;26309;50.924;4.754;2023-08-08T02:41:15;14.60;99.90
40600;DHT22;26309;50.924;4.754;2023-08-08T02:43:41;14.50;99.90
40600;DHT22;26309;50.924;4.754;2023-08-08T02:46:07;14.40;99.90
40600;DHT22;26309;50.924;4.754;2023-08-08T02:48:32;14.40;99.90
40600;DHT22;26309;50.924;4.754;2023-08-08T02:50:58;14.40;99.90
40600;DHT22;26309;50.924;4.754;2023-08-08T02:53:24;14.30;99.90
40600;DHT22;26309;50.924;4.754;2023-08-08T02:55:50;14.40;99.90
40600;DHT22;26309;50.924;4.754;2023-08-08T02:58:16;14.60;99.90
40600;DHT22;26309;50.924;4.754;2023-08-08T03:00:42;14.50;99.90
40600;DHT22;26309;50.924;4.754;2023-08-08T03:03:07;14.50;99.90
40600;DHT22;26309;50.924;4.754;2023-08-08T03:05:34;14.30;99.90
40600;DHT22;26309;50.924;4.754;2023-08-08T03:08:00;14.30;99.90
40600;DHT22;26309;50.924;4.754;2023-08-08T03:10:26;14.40;99.90
40600;DHT22;26309;50.924;4.754;2023-08-08T03:12:51;14.40;99.90
40600;DHT22;26309;50.924;4.754;2023-08-08T03:15:17;14.50;99.90
40600;DHT22;26309;50.924;4.754;2023-08-08T03:17:43;14.50;99.90
40600;DHT22;26309;50.924;4.754;2023-08-08T03:20:10;14.50;99.90
40600;DHT22;26309;50.924;4.754;2023-08-08T03:22:37;14.50;99.90
40600;DHT22;26309;50.924;4.754;2023-08-08T03:25:03;14.50;99.90
40600;DHT22;26309;50.924;4.754;2023-08-08T03:27:30;14.40;99.90
40600;DHT22;26309;50.924;4.754;2023-08-08T03:29:56;14.50;99.90
40600;DHT22;26309;50.924;4.754;2023-08-08T03:32:22;14.30;99.90
40600;DHT22;26309;50.924;4.754;2023-08-08T03:34:48;14.40;99.90
40600;DHT22;26309;50.924;4.754;2023-08-08T03:37:14;14.30;99.90
40600;DHT22;26309;50.924;4.754;2023-08-08T03:39:40;14.40;99.90
40600;DHT22;26309;50.924;4.754;2023-08-08T03:42:06;14.50;99.90
40600;DHT22;26309;50.924;4.754;2023-08-08T03:44:32;14.50;99.90
40600;DHT22;26309;50.924;4.754;2023-08-08T03:46:58;14.50;99.90
40600;DHT22;26309;50.924;4.754;2023-08-08T03:49:23;14.30;99.90
40600;DHT22;26309;50.924;4.754;2023-08-08T03:51:49;14.30;99.90
40600;DHT22;26309;50.924;4.754;2023-08-08T03:54:16;14.30;99.90
40600;DHT22;26309;50.924;4.754;2023-08-08T03:56:42;14.20;99.90
40600;DHT22;26309;50.924;4.754;2023-08-08T03:59:08;14.20;99.90
40600;DHT22;26309;50.924;4.754;2023-08-08T04:01:34;14.20;99.90
40600;DHT22;26309;50.924;4.754;2023-08-08T04:03:59;14.10;99.90
40600;DHT22;26309;50.924;4.754;2023-08-08T04:06:25;14.10;99.90
40600;DHT22;26309;50.924;4.754;2023-08-08T04:08:51;14.10;99.90
40600;DHT22;26309;50.924;4.754;2023-08-08T04:11:17;14.20;99.90
40600;DHT22;26309;50.924;4.754;2023-08-08T04:13:43;14.20;99.90
40600;DHT22;26309;50.924;4.754;2023-08-08T04:16:08;14.30;99.90
40600;DHT22;26309;50.924;4.754;2023-08-08T04:18:34;14.10;99.90
40600;DHT22;26309;50.924;4.754;2023-08-08T04:21:00;13.90;99.90
40600;DHT22;26309;50.924;4.754;2023-08-08T04:23:26;14.10;99.90
40600;DHT22;26309;50.924;4.754;2023-08-08T04:25:53;14.10;99.90
40600;DHT22;26309;50.924;4.754;2023-08-08T04:28:19;14.10;99.90
40600;DHT22;26309;50.924;4.754;2023-08-08T04:30:45;14.20;99.90
40600;DHT22;26309;50.924;4.754;2023-08-08T04:33:11;14.20;99.90
40600;DHT22;26309;50.924;4.754;2023-08-08T04:35:37;14.20;99.90
40600;DHT22;26309;50.924;4.754;2023-08-08T04:38:03;14.10;99.90
40600;DHT22;26309;50.924;4.754;2023-08-08T04:40:30;14.00;99.90
40600;DHT22;26309;50.924;4.754;2023-08-08T04:42:56;14.10;99.90
40600;DHT22;26309;50.924;4.754;2023-08-08T04:45:21;14.30;99.90
40600;DHT22;26309;50.924;4.754;2023-08-08T04:47:48;14.30;99.90
40600;DHT22;26309;50.924;4.754;2023-08-08T04:50:14;14.30;99.90
40600;DHT22;26309;50.924;4.754;2023-08-08T04:52:40;14.40;99.90
40600;DHT22;26309;50.924;4.754;2023-08-08T04:55:06;14.40;99.90
40600;DHT22;26309;50.924;4.754;2023-08-08T04:57:33;14.30;99.90
40600;DHT22;26309;50.924;4.754;2023-08-08T04:59:58;14.30;99.90
40600;DHT22;26309;50.924;4.754;2023-08-08T05:02:29;14.60;99.90
40600;DHT22;26309;50.924;4.754;2023-08-08T05:04:55;14.90;99.90
40600;DHT22;26309;50.924;4.754;2023-08-08T05:07:21;15.30;99.90
40600;DHT22;26309;50.924;4.754;2023-08-08T05:09:47;15.50;99.90
40600;DHT22;26309;50.924;4.754;2023-08-08T05:12:12;15.90;99.90
40600;DHT22;26309;50.924;4.754;2023-08-08T05:14:38;16.30;99.90
40600;DHT22;26309;50.924;4.754;2023-08-08T05:17:04;16.50;99.90
40600;DHT22;26309;50.924;4.754;2023-08-08T05:19:31;16.60;99.90
40600;DHT22;26309;50.924;4.754;2023-08-08T05:21:57;16.70;99.90
40600;DHT22;26309;50.924;4.754;2023-08-08T05:24:23;16.90;99.90
40600;DHT22;26309;50.924;4.754;2023-08-08T05:26:49;17.10;99.90
40600;DHT22;26309;50.924;4.754;2023-08-08T05:29:15;17.20;99.90
40600;DHT22;26309;50.924;4.754;2023-08-08T05:31:41;17.40;99.90
40600;DHT22;26309;50.924;4.754;2023-08-08T05:34:07;17.50;99.90
40600;DHT22;26309;50.924;4.754;2023-08-08T05:36:33;17.60;99.90
40600;DHT22;26309;50.924;4.754;2023-08-08T05:38:58;17.50;99.90
40600;DHT22;26309;50.924;4.754;2023-08-08T05:41:24;17.40;99.90
40600;DHT22;26309;50.924;4.754;2023-08-08T05:43:50;17.40;99.90
40600;DHT22;26309;50.924;4.754;2023-08-08T05:46:16;17.70;99.90
40600;DHT22;26309;50.924;4.754;2023-08-08T05:48:42;17.70;99.90
40600;DHT22;26309;50.924;4.754;2023-08-08T05:51:08;17.60;99.90
40600;DHT22;26309;50.924;4.754;2023-08-08T05:53:33;17.60;99.90
40600;DHT22;26309;50.924;4.754;2023-08-08T05:55:59;17.80;99.90
40600;DHT22;26309;50.924;4.754;2023-08-08T05:58:25;17.70;99.90
40600;DHT22;26309;50.924;4.754;2023-08-08T06:00:52;17.80;99.90
40600;DHT22;26309;50.924;4.754;2023-08-08T06:03:18;18.20;99.90
40600;DHT22;26309;50.924;4.754;2023-08-08T06:05:44;18.40;99.90
40600;DHT22;26309;50.924;4.754;2023-08-08T06:08:10;18.50;99.90
40600;DHT22;26309;50.924;4.754;2023-08-08T06:10:37;18.70;99.90
40600;DHT22;26309;50.924;4.754;2023-08-08T06:13:03;18.30;99.90
40600;DHT22;26309;50.924;4.754;2023-08-08T06:15:29;18.00;99.90
40600;DHT22;26309;50.924;4.754;2023-08-08T06:17:55;17.60;99.90
40600;DHT22;26309;50.924;4.754;2023-08-08T06:20:21;17.40;99.90
40600;DHT22;26309;50.924;4.754;2023-08-08T06:22:47;17.20;99.90
40600;DHT22;26309;50.924;4.754;2023-08-08T06:25:13;16.90;99.90
40600;DHT22;26309;50.924;4.754;2023-08-08T06:27:39;16.90;99.90
40600;DHT22;26309;50.924;4.754;2023-08-08T06:30:05;16.90;99.90
40600;DHT22;26309;50.924;4.754;2023-08-08T06:32:31;16.90;99.90
40600;DHT22;26309;50.924;4.754;2023-08-08T06:34:57;17.00;99.90
40600;DHT22;26309;50.924;4.754;2023-08-08T06:37:23;17.30;99.90
40600;DHT22;26309;50.924;4.754;2023-08-08T06:39:49;17.50;99.90
40600;DHT22;26309;50.924;4.754;2023-08-08T06:42:15;17.50;99.90
40600;DHT22;26309;50.924;4.754;2023-08-08T06:44:44;17.70;99.90
40600;DHT22;26309;50.924;4.754;2023-08-08T06:47:11;17.80;99.90
40600;DHT22;26309;50.924;4.754;2023-08-08T06:49:38;18.00;99.90
40600;DHT22;26309;50.924;4.754;2023-08-08T06:52:05;18.10;99.90
40600;DHT22;26309;50.924;4.754;2023-08-08T06:54:32;18.30;99.90
40600;DHT22;26309;50.924;4.754;2023-08-08T06:56:58;18.40;99.90
40600;DHT22;26309;50.924;4.754;2023-08-08T06:59:25;18.30;99.90
40600;DHT22;26309;50.924;4.754;2023-08-08T07:01:52;18.30;99.90
40600;DHT22;26309;50.924;4.754;2023-08-08T07:04:17;18.20;99.90
40600;DHT22;26309;50.924;4.754;2023-08-08T07:06:44;18.10;99.90
40600;DHT22;26309;50.924;4.754;2023-08-08T07:09:13;18.00;99.90
40600;DHT22;26309;50.924;4.754;2023-08-08T07:11:40;18.00;99.90
40600;DHT22;26309;50.924;4.754;2023-08-08T07:14:06;18.10;99.90
40600;DHT22;26309;50.924;4.754;2023-08-08T07:16:32;18.20;99.90
40600;DHT22;26309;50.924;4.754;2023-08-08T07:18:58;18.20;99.90
40600;DHT22;26309;50.924;4.754;2023-08-08T07:21:24;18.30;99.90
40600;DHT22;26309;50.924;4.754;2023-08-08T07:23:50;18.20;99.90
40600;DHT22;26309;50.924;4.754;2023-08-08T07:26:18;18.30;99.90
40600;DHT22;26309;50.924;4.754;2023-08-08T07:28:44;18.40;99.90
40600;DHT22;26309;50.924;4.754;2023-08-08T07:31:10;18.60;99.90
40600;DHT22;26309;50.924;4.754;2023-08-08T07:33:36;18.60;99.90
40600;DHT22;26309;50.924;4.754;2023-08-08T07:36:02;18.50;99.90
40600;DHT22;26309;50.924;4.754;2023-08-08T07:38:28;18.40;99.90
40600;DHT22;26309;50.924;4.754;2023-08-08T07:40:53;18.50;99.90
40600;DHT22;26309;50.924;4.754;2023-08-08T07:43:19;18.50;99.90
40600;DHT22;26309;50.924;4.754;2023-08-08T07:45:46;18.60;99.90
40600;DHT22;26309;50.924;4.754;2023-08-08T07:48:12;18.80;99.90
40600;DHT22;26309;50.924;4.754;2023-08-08T07:50:38;18.90;99.90
40600;DHT22;26309;50.924;4.754;2023-08-08T07:53:03;18.80;99.90
40600;DHT22;26309;50.924;4.754;2023-08-08T07:55:29;19.00;99.90
40600;DHT22;26309;50.924;4.754;2023-08-08T07:57:55;19.00;99.90
40600;DHT22;26309;50.924;4.754;2023-08-08T08:00:21;19.20;99.90
40600;DHT22;26309;50.924;4.754;2023-08-08T08:02:47;19.40;99.90
40600;DHT22;26309;50.924;4.754;2023-08-08T08:05:13;19.40;99.90
40600;DHT22;26309;50.924;4.754;2023-08-08T08:07:39;19.40;99.90
40600;DHT22;26309;50.924;4.754;2023-08-08T08:10:08;19.40;99.90
40600;DHT22;26309;50.924;4.754;2023-08-08T08:12:34;19.70;99.90
40600;DHT22;26309;50.924;4.754;2023-08-08T08:15:00;19.80;99.90
40600;DHT22;26309;50.924;4.754;2023-08-08T08:17:26;19.80;99.90
40600;DHT22;26309;50.924;4.754;2023-08-08T08:19:54;19.90;99.90
40600;DHT22;26309;50.924;4.754;2023-08-08T08:22:20;20.00;99.90
40600;DHT22;26309;50.924;4.754;2023-08-08T08:24:46;20.00;99.90
40600;DHT22;26309;50.924;4.754;2023-08-08T08:27:12;19.90;99.90
40600;DHT22;26309;50.924;4.754;2023-08-08T08:29:39;19.90;99.90
40600;DHT22;26309;50.924;4.754;2023-08-08T08:32:05;20.00;99.90
40600;DHT22;26309;50.924;4.754;2023-08-08T08:34:30;20.20;99.90
40600;DHT22;26309;50.924;4.754;2023-08-08T08:36:57;20.30;99.90
40600;DHT22;26309;50.924;4.754;2023-08-08T08:39:24;20.20;99.90
40600;DHT22;26309;50.924;4.754;2023-08-08T08:41:54;20.20;99.90
40600;DHT22;26309;50.924;4.754;2023-08-08T08:44:22;20.50;99.90
40600;DHT22;26309;50.924;4.754;2023-08-08T08:46:59;20.40;99.90
40600;DHT22;26309;50.924;4.754;2023-08-08T08:49:30;20.10;99.90
40600;DHT22;26309;50.924;4.754;2023-08-08T08:51:58;19.70;99.90
40600;DHT22;26309;50.924;4.754;2023-08-08T08:54:27;19.70;99.90
40600;DHT22;26309;50.924;4.754;2023-08-08T08:56:56;19.70;99.90
40600;DHT22;26309;50.924;4.754;2023-08-08T08:59:22;19.80;99.90
40600;DHT22;26309;50.924;4.754;2023-08-08T09:01:50;19.90;99.90
40600;DHT22;26309;50.924;4.754;2023-08-08T09:04:19;19.70;99.90
40600;DHT22;26309;50.924;4.754;2023-08-08T09:06:47;19.60;99.90
40600;DHT22;26309;50.924;4.754;2023-08-08T09:09:13;19.20;99.90
40600;DHT22;26309;50.924;4.754;2023-08-08T09:11:46;19.30;99.90
40600;DHT22;26309;50.924;4.754;2023-08-08T09:14:20;19.50;99.90
40600;DHT22;26309;50.924;4.754;2023-08-08T09:16:48;19.70;99.90
40600;DHT22;26309;50.924;4.754;2023-08-08T09:19:15;19.90;99.90
40600;DHT22;26309;50.924;4.754;2023-08-08T09:21:43;19.70;99.90
40600;DHT22;26309;50.924;4.754;2023-08-08T09:24:09;19.50;99.90
40600;DHT22;26309;50.924;4.754;2023-08-08T09:26:35;19.70;99.90
40600;DHT22;26309;50.924;4.754;2023-08-08T09:29:02;19.70;99.90
40600;DHT22;26309;50.924;4.754;2023-08-08T09:31:28;19.70;99.90
40600;DHT22;26309;50.924;4.754;2023-08-08T09:34:00;19.90;99.90
40600;DHT22;26309;50.924;4.754;2023-08-08T09:36:26;20.30;99.90
40600;DHT22;26309;50.924;4.754;2023-08-08T09:38:56;20.30;99.90
40600;DHT22;26309;50.924;4.754;2023-08-08T09:41:23;20.10;99.90
40600;DHT22;26309;50.924;4.754;2023-08-08T09:43:50;20.20;99.90
40600;DHT22;26309;50.924;4.754;2023-08-08T09:46:19;20.20;99.90
40600;DHT22;26309;50.924;4.754;2023-08-08T09:48:46;20.10;99.90
40600;DHT22;26309;50.924;4.754;2023-08-08T09:51:13;20.00;99.90
40600;DHT22;26309;50.924;4.754;2023-08-08T09:53:39;20.10;99.90
40600;DHT22;26309;50.924;4.754;2023-08-08T09:56:06;20.10;99.90
40600;DHT22;26309;50.924;4.754;2023-08-08T09:58:33;20.30;99.90
40600;DHT22;26309;50.924;4.754;2023-08-08T10:00:59;20.40;99.90
40600;DHT22;26309;50.924;4.754;2023-08-08T10:03:25;20.40;99.90
40600;DHT22;26309;50.924;4.754;2023-08-08T10:05:54;20.40;99.90
40600;DHT22;26309;50.924;4.754;2023-08-08T10:08:21;20.10;99.90
40600;DHT22;26309;50.924;4.754;2023-08-08T10:10:49;19.90;99.90
40600;DHT22;26309;50.924;4.754;2023-08-08T10:13:26;19.80;99.90
40600;DHT22;26309;50.924;4.754;2023-08-08T10:15:53;19.90;99.90
40600;DHT22;26309;50.924;4.754;2023-08-08T10:18:23;20.00;99.90
40600;DHT22;26309;50.924;4.754;2023-08-08T10:20:57;19.80;99.90
40600;DHT22;26309;50.924;4.754;2023-08-08T10:23:23;19.90;99.90
40600;DHT22;26309;50.924;4.754;2023-08-08T10:25:51;20.00;99.90
40600;DHT22;26309;50.924;4.754;2023-08-08T10:28:21;19.90;99.90
40600;DHT22;26309;50.924;4.754;2023-08-08T10:30:55;20.10;99.90
40600;DHT22;26309;50.924;4.754;2023-08-08T10:33:48;20.10;99.90
40600;DHT22;26309;50.924;4.754;2023-08-08T10:36:52;20.00;99.90
40600;DHT22;26309;50.924;4.754;2023-08-08T10:39:20;19.90;99.90
40600;DHT22;26309;50.924;4.754;2023-08-08T10:41:49;19.80;99.90
40600;DHT22;26309;50.924;4.754;2023-08-08T10:44:23;19.90;99.90
40600;DHT22;26309;50.924;4.754;2023-08-08T10:46:50;20.10;99.90
40600;DHT22;26309;50.924;4.754;2023-08-08T10:49:17;20.40;99.90
40600;DHT22;26309;50.924;4.754;2023-08-08T10:51:45;20.70;99.90
40600;DHT22;26309;50.924;4.754;2023-08-08T10:54:17;21.00;99.90
40600;DHT22;26309;50.924;4.754;2023-08-08T10:56:55;20.90;99.90
40600;DHT22;26309;50.924;4.754;2023-08-08T10:59:26;21.00;99.90
40600;DHT22;26309;50.924;4.754;2023-08-08T11:01:53;21.10;99.90
40600;DHT22;26309;50.924;4.754;2023-08-08T11:04:23;20.80;99.90
40600;DHT22;26309;50.924;4.754;2023-08-08T11:06:53;20.50;99.90
40600;DHT22;26309;50.924;4.754;2023-08-08T11:09:20;20.20;99.90
40600;DHT22;26309;50.924;4.754;2023-08-08T11:11:46;19.70;99.90
40600;DHT22;26309;50.924;4.754;2023-08-08T11:14:16;19.80;99.90
40600;DHT22;26309;50.924;4.754;2023-08-08T11:16:43;20.00;99.90
40600;DHT22;26309;50.924;4.754;2023-08-08T11:19:10;20.20;99.90
40600;DHT22;26309;50.924;4.754;2023-08-08T11:21:37;20.40;99.90
40600;DHT22;26309;50.924;4.754;2023-08-08T11:24:05;20.50;99.90
40600;DHT22;26309;50.924;4.754;2023-08-08T11:26:32;20.40;99.90
40600;DHT22;26309;50.924;4.754;2023-08-08T11:28:59;20.50;99.90
40600;DHT22;26309;50.924;4.754;2023-08-08T11:31:26;20.80;99.90
40600;DHT22;26309;50.924;4.754;2023-08-08T11:33:53;21.00;99.90
40600;DHT22;26309;50.924;4.754;2023-08-08T11:36:21;20.90;99.90
40600;DHT22;26309;50.924;4.754;2023-08-08T11:38:49;21.10;99.90
40600;DHT22;26309;50.924;4.754;2023-08-08T11:41:22;21.30;99.90
40600;DHT22;26309;50.924;4.754;2023-08-08T11:43:49;21.60;99.90
40600;DHT22;26309;50.924;4.754;2023-08-08T11:46:16;21.80;99.90
40600;DHT22;26309;50.924;4.754;2023-08-08T11:48:43;21.60;99.90
40600;DHT22;26309;50.924;4.754;2023-08-08T11:51:14;21.70;99.90
40600;DHT22;26309;50.924;4.754;2023-08-08T11:53:51;21.80;99.90
40600;DHT22;26309;50.924;4.754;2023-08-08T11:56:20;22.00;99.90
40600;DHT22;26309;50.924;4.754;2023-08-08T11:58:51;22.00;99.90
40600;DHT22;26309;50.924;4.754;2023-08-08T12:01:25;21.90;99.90
40600;DHT22;26309;50.924;4.754;2023-08-08T12:03:52;21.60;99.90
40600;DHT22;26309;50.924;4.754;2023-08-08T12:06:19;21.50;99.90
40600;DHT22;26309;50.924;4.754;2023-08-08T12:08:47;21.60;99.90
40600;DHT22;26309;50.924;4.754;2023-08-08T12:11:14;21.40;99.90
40600;DHT22;26309;50.924;4.754;2023-08-08T12:13:42;21.20;99.90
40600;DHT22;26309;50.924;4.754;2023-08-08T12:16:09;21.20;99.90
40600;DHT22;26309;50.924;4.754;2023-08-08T12:18:37;21.40;99.90
40600;DHT22;26309;50.924;4.754;2023-08-08T12:21:07;21.50;99.90
40600;DHT22;26309;50.924;4.754;2023-08-08T12:23:35;21.50;99.90
40600;DHT22;26309;50.924;4.754;2023-08-08T12:26:03;21.40;99.90
40600;DHT22;26309;50.924;4.754;2023-08-08T12:28:31;21.70;99.90
40600;DHT22;26309;50.924;4.754;2023-08-08T12:30:57;22.00;99.90
40600;DHT22;26309;50.924;4.754;2023-08-08T12:33:23;22.10;99.90
40600;DHT22;26309;50.924;4.754;2023-08-08T12:35:49;22.30;99.90
40600;DHT22;26309;50.924;4.754;2023-08-08T12:38:15;22.40;99.90
40600;DHT22;26309;50.924;4.754;2023-08-08T12:40:42;22.50;99.90
40600;DHT22;26309;50.924;4.754;2023-08-08T12:43:10;22.20;99.90
40600;DHT22;26309;50.924;4.754;2023-08-08T12:45:39;22.20;99.90
40600;DHT22;26309;50.924;4.754;2023-08-08T12:48:06;22.30;99.90
40600;DHT22;26309;50.924;4.754;2023-08-08T12:50:32;22.40;99.90
40600;DHT22;26309;50.924;4.754;2023-08-08T12:52:58;22.60;99.90
40600;DHT22;26309;50.924;4.754;2023-08-08T12:55:24;22.90;99.90
40600;DHT22;26309;50.924;4.754;2023-08-08T12:57:50;23.10;99.90
40600;DHT22;26309;50.924;4.754;2023-08-08T13:00:16;23.00;99.90
40600;DHT22;26309;50.924;4.754;2023-08-08T13:02:43;22.90;99.90
40600;DHT22;26309;50.924;4.754;2023-08-08T13:05:09;22.70;99.90
40600;DHT22;26309;50.924;4.754;2023-08-08T13:07:35;22.60;99.90
40600;DHT22;26309;50.924;4.754;2023-08-08T13:10:02;22.80;99.90
40600;DHT22;26309;50.924;4.754;2023-08-08T13:12:29;23.00;99.90
40600;DHT22;26309;50.924;4.754;2023-08-08T13:14:55;23.30;99.90
40600;DHT22;26309;50.924;4.754;2023-08-08T13:17:21;23.20;99.90
40600;DHT22;26309;50.924;4.754;2023-08-08T13:19:47;23.10;99.90
40600;DHT22;26309;50.924;4.754;2023-08-08T13:22:13;23.10;99.90
40600;DHT22;26309;50.924;4.754;2023-08-08T13:24:39;23.20;99.90
40600;DHT22;26309;50.924;4.754;2023-08-08T13:27:05;23.10;99.90
40600;DHT22;26309;50.924;4.754;2023-08-08T13:29:31;22.90;99.90
40600;DHT22;26309;50.924;4.754;2023-08-08T13:31:57;22.30;99.90
40600;DHT22;26309;50.924;4.754;2023-08-08T13:34:23;22.10;99.90
40600;DHT22;26309;50.924;4.754;2023-08-08T13:36:49;21.70;99.90
40600;DHT22;26309;50.924;4.754;2023-08-08T13:39:15;21.60;99.90
40600;DHT22;26309;50.924;4.754;2023-08-08T13:41:41;21.60;99.90
40600;DHT22;26309;50.924;4.754;2023-08-08T13:44:07;21.50;99.90
40600;DHT22;26309;50.924;4.754;2023-08-08T13:46:33;21.80;99.90
40600;DHT22;26309;50.924;4.754;2023-08-08T13:48:59;22.00;99.90
40600;DHT22;26309;50.924;4.754;2023-08-08T13:51:25;22.10;99.90
40600;DHT22;26309;50.924;4.754;2023-08-08T13:53:51;21.90;99.90
40600;DHT22;26309;50.924;4.754;2023-08-08T13:56:17;22.20;99.90
40600;DHT22;26309;50.924;4.754;2023-08-08T13:58:43;22.30;99.90
40600;DHT22;26309;50.924;4.754;2023-08-08T14:01:09;22.40;99.90
40600;DHT22;26309;50.924;4.754;2023-08-08T14:03:35;22.60;99.90
40600;DHT22;26309;50.924;4.754;2023-08-08T14:06:01;22.80;99.90
40600;DHT22;26309;50.924;4.754;2023-08-08T14:08:27;22.90;99.90
40600;DHT22;26309;50.924;4.754;2023-08-08T14:10:53;23.10;99.90
40600;DHT22;26309;50.924;4.754;2023-08-08T14:13:19;23.20;99.90
40600;DHT22;26309;50.924;4.754;2023-08-08T14:15:47;23.00;99.90
40600;DHT22;26309;50.924;4.754;2023-08-08T14:18:13;22.90;99.90
40600;DHT22;26309;50.924;4.754;2023-08-08T14:20:39;23.00;99.90
40600;DHT22;26309;50.924;4.754;2023-08-08T14:23:05;22.90;99.90
40600;DHT22;26309;50.924;4.754;2023-08-08T14:25:32;22.40;99.90
40600;DHT22;26309;50.924;4.754;2023-08-08T14:27:58;22.30;99.90
40600;DHT22;26309;50.924;4.754;2023-08-08T14:30:29;22.20;99.90
40600;DHT22;26309;50.924;4.754;2023-08-08T14:32:56;22.10;99.90
40600;DHT22;26309;50.924;4.754;2023-08-08T14:35:23;22.00;99.90
40600;DHT22;26309;50.924;4.754;2023-08-08T14:37:49;22.00;99.90
40600;DHT22;26309;50.924;4.754;2023-08-08T14:40:16;21.90;99.90
40600;DHT22;26309;50.924;4.754;2023-08-08T14:42:42;22.00;99.90
40600;DHT22;26309;50.924;4.754;2023-08-08T14:45:08;22.20;99.90
40600;DHT22;26309;50.924;4.754;2023-08-08T14:47:34;22.30;99.90
40600;DHT22;26309;50.924;4.754;2023-08-08T14:50:00;22.40;99.90
40600;DHT22;26309;50.924;4.754;2023-08-08T14:52:25;22.40;99.90
40600;DHT22;26309;50.924;4.754;2023-08-08T14:54:51;22.30;99.90
40600;DHT22;26309;50.924;4.754;2023-08-08T14:57:17;22.20;99.90
40600;DHT22;26309;50.924;4.754;2023-08-08T14:59:43;22.00;99.90
40600;DHT22;26309;50.924;4.754;2023-08-08T15:02:09;21.80;99.90
40600;DHT22;26309;50.924;4.754;2023-08-08T15:04:34;21.30;99.90
40600;DHT22;26309;50.924;4.754;2023-08-08T15:07:01;21.00;99.90
40600;DHT22;26309;50.924;4.754;2023-08-08T15:09:27;21.10;99.90
40600;DHT22;26309;50.924;4.754;2023-08-08T15:11:53;21.00;99.90
40600;DHT22;26309;50.924;4.754;2023-08-08T15:14:19;20.90;99.90
40600;DHT22;26309;50.924;4.754;2023-08-08T15:16:50;21.00;99.90
40600;DHT22;26309;50.924;4.754;2023-08-08T15:19:16;21.00;99.90
40600;DHT22;26309;50.924;4.754;2023-08-08T15:21:42;21.00;99.90
40600;DHT22;26309;50.924;4.754;2023-08-08T15:24:08;20.90;99.90
40600;DHT22;26309;50.924;4.754;2023-08-08T15:26:35;20.80;99.90
40600;DHT22;26309;50.924;4.754;2023-08-08T15:29:01;20.60;99.90
40600;DHT22;26309;50.924;4.754;2023-08-08T15:31:27;20.50;99.90